sensor_id;sensor_type;location;lat;lon;timestamp;P1;durP1;ratioP1;P2;durP2;ratioP2
22660;SDS011;11497;52.222;21.246;2022-10-16T00:01:42;29.88;;;18.88;;
22660;SDS011;11497;52.222;21.246;2022-10-16T00:04:10;30.45;;;19.13;;
22660;SDS011;11497;52.222;21.246;2022-10-16T00:06:38;32.13;;;20.25;;
22660;SDS011;11497;52.222;21.246;2022-10-16T00:09:07;29.40;;;19.52;;
22660;SDS011;11497;52.222;21.246;2022-10-16T00:11:35;30.67;;;20.17;;
22660;SDS011;11497;52.222;21.246;2022-10-16T00:14:13;33.92;;;20.42;;
22660;SDS011;11497;52.222;21.246;2022-10-16T00:16:41;32.67;;;20.23;;
22660;SDS011;11497;52.222;21.246;2022-10-16T00:19:10;33.72;;;20.63;;
22660;SDS011;11497;52.222;21.246;2022-10-16T00:21:39;37.47;;;21.55;;
22660;SDS011;11497;52.222;21.246;2022-10-16T00:24:08;29.80;;;21.05;;
22660;SDS011;11497;52.222;21.246;2022-10-16T00:26:37;30.52;;;21.08;;
22660;SDS011;11497;52.222;21.246;2022-10-16T00:29:06;35.22;;;21.50;;
22660;SDS011;11497;52.222;21.246;2022-10-16T00:31:34;34.45;;;21.52;;
22660;SDS011;11497;52.222;21.246;2022-10-16T00:34:02;30.92;;;19.95;;
22660;SDS011;11497;52.222;21.246;2022-10-16T00:36:30;31.90;;;22.30;;
22660;SDS011;11497;52.222;21.246;2022-10-16T00:38:59;34.60;;;21.60;;
22660;SDS011;11497;52.222;21.246;2022-10-16T00:41:29;34.25;;;21.75;;
22660;SDS011;11497;52.222;21.246;2022-10-16T00:43:58;32.05;;;21.60;;
22660;SDS011;11497;52.222;21.246;2022-10-16T00:46:36;34.22;;;21.92;;
22660;SDS011;11497;52.222;21.246;2022-10-16T00:49:08;35.65;;;21.30;;
22660;SDS011;11497;52.222;21.246;2022-10-16T00:51:39;34.03;;;22.20;;
22660;SDS011;11497;52.222;21.246;2022-10-16T00:54:17;36.88;;;21.65;;
22660;SDS011;11497;52.222;21.246;2022-10-16T00:56:52;35.20;;;22.30;;
22660;SDS011;11497;52.222;21.246;2022-10-16T00:59:40;35.58;;;22.27;;
22660;SDS011;11497;52.222;21.246;2022-10-16T01:02:10;34.50;;;23.10;;
22660;SDS011;11497;52.222;21.246;2022-10-16T01:04:42;36.88;;;22.55;;
22660;SDS011;11497;52.222;21.246;2022-10-16T01:07:56;37.13;;;22.45;;
22660;SDS011;11497;52.222;21.246;2022-10-16T01:15:37;38.53;;;22.58;;
22660;SDS011;11497;52.222;21.246;2022-10-16T01:21:03;33.08;;;21.92;;
22660;SDS011;11497;52.222;21.246;2022-10-16T01:26:31;36.03;;;22.17;;
22660;SDS011;11497;52.222;21.246;2022-10-16T01:29:34;33.67;;;22.17;;
22660;SDS011;11497;52.222;21.246;2022-10-16T01:35:23;39.25;;;22.70;;
22660;SDS011;11497;52.222;21.246;2022-10-16T01:37:57;36.63;;;22.80;;
22660;SDS011;11497;52.222;21.246;2022-10-16T01:40:38;38.70;;;23.50;;
22660;SDS011;11497;52.222;21.246;2022-10-16T01:43:14;37.83;;;23.40;;
22660;SDS011;11497;52.222;21.246;2022-10-16T01:45:52;41.58;;;23.95;;
22660;SDS011;11497;52.222;21.246;2022-10-16T01:48:20;39.90;;;24.70;;
22660;SDS011;11497;52.222;21.246;2022-10-16T01:50:54;34.78;;;23.80;;
22660;SDS011;11497;52.222;21.246;2022-10-16T01:53:26;38.00;;;25.40;;
22660;SDS011;11497;52.222;21.246;2022-10-16T01:55:55;40.85;;;25.13;;
22660;SDS011;11497;52.222;21.246;2022-10-16T01:58:25;38.50;;;24.73;;
22660;SDS011;11497;52.222;21.246;2022-10-16T02:00:54;41.92;;;25.67;;
22660;SDS011;11497;52.222;21.246;2022-10-16T02:03:23;38.03;;;25.98;;
22660;SDS011;11497;52.222;21.246;2022-10-16T02:05:54;39.70;;;25.30;;
22660;SDS011;11497;52.222;21.246;2022-10-16T02:08:26;38.40;;;26.10;;
22660;SDS011;11497;52.222;21.246;2022-10-16T02:10:56;39.17;;;25.70;;
22660;SDS011;11497;52.222;21.246;2022-10-16T02:14:00;39.55;;;27.20;;
22660;SDS011;11497;52.222;21.246;2022-10-16T02:16:35;43.92;;;27.00;;
22660;SDS011;11497;52.222;21.246;2022-10-16T02:19:13;38.05;;;25.98;;
22660;SDS011;11497;52.222;21.246;2022-10-16T02:22:18;43.28;;;26.67;;
22660;SDS011;11497;52.222;21.246;2022-10-16T02:30:17;43.42;;;26.73;;
22660;SDS011;11497;52.222;21.246;2022-10-16T02:32:57;43.13;;;27.88;;
22660;SDS011;11497;52.222;21.246;2022-10-16T02:35:29;43.45;;;27.60;;
22660;SDS011;11497;52.222;21.246;2022-10-16T02:37:58;48.63;;;27.42;;
22660;SDS011;11497;52.222;21.246;2022-10-16T02:40:27;40.65;;;27.17;;
22660;SDS011;11497;52.222;21.246;2022-10-16T02:42:55;43.75;;;26.58;;
22660;SDS011;11497;52.222;21.246;2022-10-16T02:45:23;41.92;;;26.98;;
22660;SDS011;11497;52.222;21.246;2022-10-16T02:47:52;42.83;;;26.98;;
22660;SDS011;11497;52.222;21.246;2022-10-16T02:50:20;39.45;;;25.85;;
22660;SDS011;11497;52.222;21.246;2022-10-16T02:52:48;39.67;;;26.30;;
22660;SDS011;11497;52.222;21.246;2022-10-16T02:55:15;45.00;;;27.15;;
22660;SDS011;11497;52.222;21.246;2022-10-16T02:57:43;41.50;;;25.75;;
22660;SDS011;11497;52.222;21.246;2022-10-16T03:00:12;37.38;;;24.77;;
22660;SDS011;11497;52.222;21.246;2022-10-16T03:02:43;36.47;;;25.58;;
22660;SDS011;11497;52.222;21.246;2022-10-16T03:05:10;39.13;;;26.63;;
22660;SDS011;11497;52.222;21.246;2022-10-16T03:07:38;38.03;;;25.33;;
22660;SDS011;11497;52.222;21.246;2022-10-16T03:10:06;35.78;;;25.02;;
22660;SDS011;11497;52.222;21.246;2022-10-16T03:12:35;39.58;;;24.88;;
22660;SDS011;11497;52.222;21.246;2022-10-16T03:15:03;43.83;;;25.85;;
22660;SDS011;11497;52.222;21.246;2022-10-16T03:17:31;36.25;;;24.05;;
22660;SDS011;11497;52.222;21.246;2022-10-16T03:20:00;35.90;;;24.58;;
22660;SDS011;11497;52.222;21.246;2022-10-16T03:22:28;37.63;;;24.45;;
22660;SDS011;11497;52.222;21.246;2022-10-16T03:24:56;37.67;;;24.60;;
22660;SDS011;11497;52.222;21.246;2022-10-16T03:27:24;41.15;;;24.80;;
22660;SDS011;11497;52.222;21.246;2022-10-16T03:29:53;36.28;;;23.63;;
22660;SDS011;11497;52.222;21.246;2022-10-16T03:32:20;34.95;;;22.17;;
22660;SDS011;11497;52.222;21.246;2022-10-16T03:34:48;34.45;;;23.67;;
22660;SDS011;11497;52.222;21.246;2022-10-16T03:37:16;35.28;;;23.92;;
22660;SDS011;11497;52.222;21.246;2022-10-16T03:39:44;37.25;;;23.08;;
22660;SDS011;11497;52.222;21.246;2022-10-16T03:42:12;37.53;;;24.20;;
22660;SDS011;11497;52.222;21.246;2022-10-16T03:44:40;34.65;;;23.70;;
22660;SDS011;11497;52.222;21.246;2022-10-16T03:47:08;32.25;;;21.75;;
22660;SDS011;11497;52.222;21.246;2022-10-16T03:49:36;36.28;;;22.70;;
22660;SDS011;11497;52.222;21.246;2022-10-16T03:52:04;33.03;;;22.75;;
22660;SDS011;11497;52.222;21.246;2022-10-16T03:54:32;33.88;;;21.90;;
22660;SDS011;11497;52.222;21.246;2022-10-16T03:56:59;31.13;;;21.60;;
22660;SDS011;11497;52.222;21.246;2022-10-16T03:59:27;33.53;;;21.70;;
22660;SDS011;11497;52.222;21.246;2022-10-16T04:01:55;34.47;;;21.75;;
22660;SDS011;11497;52.222;21.246;2022-10-16T04:04:23;35.20;;;21.92;;
22660;SDS011;11497;52.222;21.246;2022-10-16T04:06:51;32.53;;;21.83;;
22660;SDS011;11497;52.222;21.246;2022-10-16T04:09:19;35.10;;;22.67;;
22660;SDS011;11497;52.222;21.246;2022-10-16T04:11:47;31.48;;;20.05;;
22660;SDS011;11497;52.222;21.246;2022-10-16T04:14:15;31.35;;;21.23;;
22660;SDS011;11497;52.222;21.246;2022-10-16T04:16:43;36.00;;;22.20;;
22660;SDS011;11497;52.222;21.246;2022-10-16T04:19:11;33.00;;;20.98;;
22660;SDS011;11497;52.222;21.246;2022-10-16T04:21:39;31.35;;;21.33;;
22660;SDS011;11497;52.222;21.246;2022-10-16T04:24:07;36.13;;;21.60;;
22660;SDS011;11497;52.222;21.246;2022-10-16T04:26:34;29.70;;;20.98;;
22660;SDS011;11497;52.222;21.246;2022-10-16T04:29:02;31.40;;;21.08;;
22660;SDS011;11497;52.222;21.246;2022-10-16T04:31:31;31.52;;;20.42;;
22660;SDS011;11497;52.222;21.246;2022-10-16T04:33:58;36.05;;;20.38;;
22660;SDS011;11497;52.222;21.246;2022-10-16T04:36:26;31.42;;;20.85;;
22660;SDS011;11497;52.222;21.246;2022-10-16T04:38:55;35.17;;;20.77;;
22660;SDS011;11497;52.222;21.246;2022-10-16T04:41:23;33.95;;;20.63;;
22660;SDS011;11497;52.222;21.246;2022-10-16T04:43:50;30.42;;;20.30;;
22660;SDS011;11497;52.222;21.246;2022-10-16T04:46:18;31.13;;;20.88;;
22660;SDS011;11497;52.222;21.246;2022-10-16T04:48:46;32.75;;;20.63;;
22660;SDS011;11497;52.222;21.246;2022-10-16T04:51:14;35.17;;;21.08;;
22660;SDS011;11497;52.222;21.246;2022-10-16T04:53:41;33.00;;;20.92;;
22660;SDS011;11497;52.222;21.246;2022-10-16T04:56:09;32.97;;;21.73;;
22660;SDS011;11497;52.222;21.246;2022-10-16T04:58:37;34.03;;;21.15;;
22660;SDS011;11497;52.222;21.246;2022-10-16T05:01:05;34.28;;;22.02;;
22660;SDS011;11497;52.222;21.246;2022-10-16T05:03:33;33.72;;;21.27;;
22660;SDS011;11497;52.222;21.246;2022-10-16T05:06:01;34.55;;;22.08;;
22660;SDS011;11497;52.222;21.246;2022-10-16T05:08:31;37.67;;;22.42;;
22660;SDS011;11497;52.222;21.246;2022-10-16T05:10:59;30.10;;;21.05;;
22660;SDS011;11497;52.222;21.246;2022-10-16T05:13:28;30.08;;;21.15;;
22660;SDS011;11497;52.222;21.246;2022-10-16T05:15:56;30.67;;;20.35;;
22660;SDS011;11497;52.222;21.246;2022-10-16T05:18:23;32.40;;;22.35;;
22660;SDS011;11497;52.222;21.246;2022-10-16T05:20:51;30.17;;;20.75;;
22660;SDS011;11497;52.222;21.246;2022-10-16T05:23:19;32.20;;;20.73;;
22660;SDS011;11497;52.222;21.246;2022-10-16T05:25:54;33.08;;;21.25;;
22660;SDS011;11497;52.222;21.246;2022-10-16T05:28:25;36.63;;;21.23;;
22660;SDS011;11497;52.222;21.246;2022-10-16T05:30:54;29.70;;;21.02;;
22660;SDS011;11497;52.222;21.246;2022-10-16T05:33:23;32.95;;;20.70;;
22660;SDS011;11497;52.222;21.246;2022-10-16T05:35:52;30.88;;;20.90;;
22660;SDS011;11497;52.222;21.246;2022-10-16T05:38:19;36.90;;;21.48;;
22660;SDS011;11497;52.222;21.246;2022-10-16T05:40:51;32.45;;;21.70;;
22660;SDS011;11497;52.222;21.246;2022-10-16T05:43:19;31.52;;;20.63;;
22660;SDS011;11497;52.222;21.246;2022-10-16T05:45:57;28.02;;;20.23;;
22660;SDS011;11497;52.222;21.246;2022-10-16T05:48:27;28.83;;;19.45;;
22660;SDS011;11497;52.222;21.246;2022-10-16T05:50:56;27.75;;;19.42;;
22660;SDS011;11497;52.222;21.246;2022-10-16T05:53:28;29.40;;;20.25;;
22660;SDS011;11497;52.222;21.246;2022-10-16T05:55:58;28.35;;;20.23;;
22660;SDS011;11497;52.222;21.246;2022-10-16T05:58:28;26.85;;;18.85;;
22660;SDS011;11497;52.222;21.246;2022-10-16T06:01:03;32.70;;;20.48;;
22660;SDS011;11497;52.222;21.246;2022-10-16T06:03:33;27.17;;;19.63;;
22660;SDS011;11497;52.222;21.246;2022-10-16T06:08:38;31.13;;;19.10;;
22660;SDS011;11497;52.222;21.246;2022-10-16T06:11:07;30.25;;;20.23;;
22660;SDS011;11497;52.222;21.246;2022-10-16T06:13:36;28.60;;;19.58;;
22660;SDS011;11497;52.222;21.246;2022-10-16T06:16:05;29.50;;;19.38;;
22660;SDS011;11497;52.222;21.246;2022-10-16T06:18:33;29.27;;;19.75;;
22660;SDS011;11497;52.222;21.246;2022-10-16T06:21:06;25.13;;;18.80;;
22660;SDS011;11497;52.222;21.246;2022-10-16T06:23:40;25.63;;;17.67;;
22660;SDS011;11497;52.222;21.246;2022-10-16T06:26:09;27.02;;;17.38;;
22660;SDS011;11497;52.222;21.246;2022-10-16T06:28:38;24.30;;;17.95;;
22660;SDS011;11497;52.222;21.246;2022-10-16T06:31:08;24.80;;;17.67;;
22660;SDS011;11497;52.222;21.246;2022-10-16T06:33:37;27.17;;;17.88;;
22660;SDS011;11497;52.222;21.246;2022-10-16T06:38:36;27.15;;;17.85;;
22660;SDS011;11497;52.222;21.246;2022-10-16T06:41:05;27.08;;;17.13;;
22660;SDS011;11497;52.222;21.246;2022-10-16T06:43:34;28.13;;;17.40;;
22660;SDS011;11497;52.222;21.246;2022-10-16T06:46:02;28.00;;;17.88;;
22660;SDS011;11497;52.222;21.246;2022-10-16T06:48:33;31.00;;;17.90;;
22660;SDS011;11497;52.222;21.246;2022-10-16T06:51:02;33.30;;;18.30;;
22660;SDS011;11497;52.222;21.246;2022-10-16T06:53:49;29.02;;;17.50;;
22660;SDS011;11497;52.222;21.246;2022-10-16T06:56:30;27.83;;;18.58;;
22660;SDS011;11497;52.222;21.246;2022-10-16T06:58:59;29.40;;;18.58;;
22660;SDS011;11497;52.222;21.246;2022-10-16T07:01:27;31.33;;;18.35;;
22660;SDS011;11497;52.222;21.246;2022-10-16T07:03:55;28.92;;;18.38;;
22660;SDS011;11497;52.222;21.246;2022-10-16T07:06:24;27.02;;;18.95;;
22660;SDS011;11497;52.222;21.246;2022-10-16T07:08:52;27.38;;;19.05;;
22660;SDS011;11497;52.222;21.246;2022-10-16T07:11:22;26.90;;;18.88;;
22660;SDS011;11497;52.222;21.246;2022-10-16T07:13:50;26.88;;;19.00;;
22660;SDS011;11497;52.222;21.246;2022-10-16T07:16:32;29.50;;;18.08;;
22660;SDS011;11497;52.222;21.246;2022-10-16T07:19:00;28.35;;;18.15;;
22660;SDS011;11497;52.222;21.246;2022-10-16T07:21:30;25.33;;;17.05;;
22660;SDS011;11497;52.222;21.246;2022-10-16T07:24:04;23.88;;;17.85;;
22660;SDS011;11497;52.222;21.246;2022-10-16T07:26:35;23.25;;;17.00;;
22660;SDS011;11497;52.222;21.246;2022-10-16T07:29:15;24.83;;;16.98;;
22660;SDS011;11497;52.222;21.246;2022-10-16T07:31:47;26.92;;;17.35;;
22660;SDS011;11497;52.222;21.246;2022-10-16T07:34:17;21.88;;;16.58;;
22660;SDS011;11497;52.222;21.246;2022-10-16T07:36:49;24.10;;;16.27;;
22660;SDS011;11497;52.222;21.246;2022-10-16T07:39:17;28.70;;;17.33;;
22660;SDS011;11497;52.222;21.246;2022-10-16T07:41:45;26.42;;;17.25;;
22660;SDS011;11497;52.222;21.246;2022-10-16T07:44:13;24.10;;;16.65;;
22660;SDS011;11497;52.222;21.246;2022-10-16T07:46:42;25.38;;;16.83;;
22660;SDS011;11497;52.222;21.246;2022-10-16T07:49:09;23.02;;;16.85;;
22660;SDS011;11497;52.222;21.246;2022-10-16T07:51:37;22.30;;;16.42;;
22660;SDS011;11497;52.222;21.246;2022-10-16T07:54:05;23.60;;;16.00;;
22660;SDS011;11497;52.222;21.246;2022-10-16T07:56:34;24.40;;;15.82;;
22660;SDS011;11497;52.222;21.246;2022-10-16T07:59:08;23.40;;;16.08;;
22660;SDS011;11497;52.222;21.246;2022-10-16T08:01:36;23.27;;;14.95;;
22660;SDS011;11497;52.222;21.246;2022-10-16T08:04:04;19.60;;;14.30;;
22660;SDS011;11497;52.222;21.246;2022-10-16T08:06:34;19.02;;;14.38;;
22660;SDS011;11497;52.222;21.246;2022-10-16T08:09:04;22.20;;;14.13;;
22660;SDS011;11497;52.222;21.246;2022-10-16T08:11:33;19.73;;;14.18;;
22660;SDS011;11497;52.222;21.246;2022-10-16T08:14:01;17.95;;;13.77;;
22660;SDS011;11497;52.222;21.246;2022-10-16T08:16:29;19.30;;;12.55;;
22660;SDS011;11497;52.222;21.246;2022-10-16T08:18:56;17.27;;;12.35;;
22660;SDS011;11497;52.222;21.246;2022-10-16T08:21:24;17.13;;;12.52;;
22660;SDS011;11497;52.222;21.246;2022-10-16T08:23:52;20.95;;;12.05;;
22660;SDS011;11497;52.222;21.246;2022-10-16T08:26:24;17.77;;;12.48;;
22660;SDS011;11497;52.222;21.246;2022-10-16T08:28:53;14.77;;;12.07;;
22660;SDS011;11497;52.222;21.246;2022-10-16T08:31:23;15.73;;;12.52;;
22660;SDS011;11497;52.222;21.246;2022-10-16T08:33:52;16.35;;;12.02;;
22660;SDS011;11497;52.222;21.246;2022-10-16T08:36:21;15.43;;;11.77;;
22660;SDS011;11497;52.222;21.246;2022-10-16T08:38:49;17.45;;;12.32;;
22660;SDS011;11497;52.222;21.246;2022-10-16T08:44:00;16.23;;;11.85;;
22660;SDS011;11497;52.222;21.246;2022-10-16T08:49:31;15.63;;;12.50;;
22660;SDS011;11497;52.222;21.246;2022-10-16T08:51:59;18.38;;;12.40;;
22660;SDS011;11497;52.222;21.246;2022-10-16T08:54:37;15.23;;;12.13;;
22660;SDS011;11497;52.222;21.246;2022-10-16T08:57:17;17.73;;;12.65;;
22660;SDS011;11497;52.222;21.246;2022-10-16T08:59:50;18.17;;;12.02;;
22660;SDS011;11497;52.222;21.246;2022-10-16T09:02:24;18.83;;;13.32;;
22660;SDS011;11497;52.222;21.246;2022-10-16T09:07:32;18.38;;;12.40;;
22660;SDS011;11497;52.222;21.246;2022-10-16T09:15:35;17.42;;;12.98;;
22660;SDS011;11497;52.222;21.246;2022-10-16T09:23:38;19.45;;;12.50;;
22660;SDS011;11497;52.222;21.246;2022-10-16T09:26:08;17.15;;;12.85;;
22660;SDS011;11497;52.222;21.246;2022-10-16T09:28:40;16.80;;;12.15;;
22660;SDS011;11497;52.222;21.246;2022-10-16T09:31:19;17.80;;;12.73;;
22660;SDS011;11497;52.222;21.246;2022-10-16T09:33:50;18.45;;;12.38;;
22660;SDS011;11497;52.222;21.246;2022-10-16T09:36:27;16.63;;;11.63;;
22660;SDS011;11497;52.222;21.246;2022-10-16T09:39:06;17.48;;;12.32;;
22660;SDS011;11497;52.222;21.246;2022-10-16T09:41:35;18.35;;;12.23;;
22660;SDS011;11497;52.222;21.246;2022-10-16T09:44:15;14.88;;;11.38;;
22660;SDS011;11497;52.222;21.246;2022-10-16T09:47:05;16.17;;;10.95;;
22660;SDS011;11497;52.222;21.246;2022-10-16T09:49:51;19.02;;;11.38;;
22660;SDS011;11497;52.222;21.246;2022-10-16T09:52:19;15.45;;;11.18;;
22660;SDS011;11497;52.222;21.246;2022-10-16T09:57:19;17.15;;;11.15;;
22660;SDS011;11497;52.222;21.246;2022-10-16T09:59:49;16.23;;;11.55;;
22660;SDS011;11497;52.222;21.246;2022-10-16T10:02:29;15.18;;;11.48;;
22660;SDS011;11497;52.222;21.246;2022-10-16T10:05:02;16.08;;;11.18;;
22660;SDS011;11497;52.222;21.246;2022-10-16T10:07:43;19.23;;;12.10;;
22660;SDS011;11497;52.222;21.246;2022-10-16T10:10:23;16.60;;;11.40;;
22660;SDS011;11497;52.222;21.246;2022-10-16T10:12:54;14.32;;;11.15;;
22660;SDS011;11497;52.222;21.246;2022-10-16T10:15:23;16.30;;;11.20;;
22660;SDS011;11497;52.222;21.246;2022-10-16T10:17:54;15.98;;;11.30;;
22660;SDS011;11497;52.222;21.246;2022-10-16T10:22:56;18.10;;;11.63;;
22660;SDS011;11497;52.222;21.246;2022-10-16T10:30:47;16.77;;;11.63;;
22660;SDS011;11497;52.222;21.246;2022-10-16T10:33:31;13.13;;;11.07;;
22660;SDS011;11497;52.222;21.246;2022-10-16T10:36:22;18.77;;;11.63;;
22660;SDS011;11497;52.222;21.246;2022-10-16T10:39:12;15.95;;;11.90;;
22660;SDS011;11497;52.222;21.246;2022-10-16T10:50:17;14.60;;;11.82;;
22660;SDS011;11497;52.222;21.246;2022-10-16T11:02:00;14.75;;;11.23;;
22660;SDS011;11497;52.222;21.246;2022-10-16T11:07:32;16.50;;;11.82;;
22660;SDS011;11497;52.222;21.246;2022-10-16T11:10:11;13.20;;;11.13;;
22660;SDS011;11497;52.222;21.246;2022-10-16T11:13:04;15.80;;;10.85;;
22660;SDS011;11497;52.222;21.246;2022-10-16T11:15:51;14.98;;;10.57;;
22660;SDS011;11497;52.222;21.246;2022-10-16T11:18:24;16.25;;;11.68;;
22660;SDS011;11497;52.222;21.246;2022-10-16T11:21:04;14.48;;;11.35;;
22660;SDS011;11497;52.222;21.246;2022-10-16T11:26:11;13.85;;;11.18;;
22660;SDS011;11497;52.222;21.246;2022-10-16T11:28:45;13.93;;;10.68;;
22660;SDS011;11497;52.222;21.246;2022-10-16T11:31:29;18.08;;;10.98;;
22660;SDS011;11497;52.222;21.246;2022-10-16T11:37:17;14.57;;;10.18;;
22660;SDS011;11497;52.222;21.246;2022-10-16T11:39:50;18.23;;;11.10;;
22660;SDS011;11497;52.222;21.246;2022-10-16T11:47:56;13.88;;;10.85;;
22660;SDS011;11497;52.222;21.246;2022-10-16T11:50:39;15.40;;;9.85;;
22660;SDS011;11497;52.222;21.246;2022-10-16T11:53:22;16.02;;;10.40;;
22660;SDS011;11497;52.222;21.246;2022-10-16T11:56:00;15.82;;;10.95;;
22660;SDS011;11497;52.222;21.246;2022-10-16T12:09:29;12.80;;;10.27;;
22660;SDS011;11497;52.222;21.246;2022-10-16T12:11:59;14.95;;;10.10;;
22660;SDS011;11497;52.222;21.246;2022-10-16T12:14:34;14.98;;;10.27;;
22660;SDS011;11497;52.222;21.246;2022-10-16T12:17:33;13.10;;;10.23;;
22660;SDS011;11497;52.222;21.246;2022-10-16T12:22:50;14.68;;;9.48;;
22660;SDS011;11497;52.222;21.246;2022-10-16T12:27:57;14.07;;;8.93;;
22660;SDS011;11497;52.222;21.246;2022-10-16T12:30:27;13.80;;;9.93;;
22660;SDS011;11497;52.222;21.246;2022-10-16T12:33:05;16.40;;;9.75;;
22660;SDS011;11497;52.222;21.246;2022-10-16T12:35:46;14.98;;;10.05;;
22660;SDS011;11497;52.222;21.246;2022-10-16T12:38:31;14.35;;;10.00;;
22660;SDS011;11497;52.222;21.246;2022-10-16T12:41:24;12.43;;;9.35;;
22660;SDS011;11497;52.222;21.246;2022-10-16T12:43:55;12.80;;;9.35;;
22660;SDS011;11497;52.222;21.246;2022-10-16T12:51:40;12.27;;;9.32;;
22660;SDS011;11497;52.222;21.246;2022-10-16T13:00:28;15.88;;;9.27;;
22660;SDS011;11497;52.222;21.246;2022-10-16T13:09:04;14.07;;;9.90;;
22660;SDS011;11497;52.222;21.246;2022-10-16T13:15:01;12.43;;;9.27;;
22660;SDS011;11497;52.222;21.246;2022-10-16T13:23:02;14.85;;;9.68;;
22660;SDS011;11497;52.222;21.246;2022-10-16T13:26:22;14.68;;;9.95;;
22660;SDS011;11497;52.222;21.246;2022-10-16T13:28:28;12.40;;;9.98;;
22660;SDS011;11497;52.222;21.246;2022-10-16T13:30:59;15.88;;;10.13;;
22660;SDS011;11497;52.222;21.246;2022-10-16T13:36:04;15.25;;;10.27;;
22660;SDS011;11497;52.222;21.246;2022-10-16T13:38:33;16.65;;;9.98;;
22660;SDS011;11497;52.222;21.246;2022-10-16T13:41:12;13.75;;;9.60;;
22660;SDS011;11497;52.222;21.246;2022-10-16T13:43:46;15.65;;;10.25;;
22660;SDS011;11497;52.222;21.246;2022-10-16T13:46:18;14.65;;;10.27;;
22660;SDS011;11497;52.222;21.246;2022-10-16T13:49:01;14.63;;;9.27;;
22660;SDS011;11497;52.222;21.246;2022-10-16T13:51:38;13.55;;;9.93;;
22660;SDS011;11497;52.222;21.246;2022-10-16T13:54:09;15.48;;;10.48;;
22660;SDS011;11497;52.222;21.246;2022-10-16T13:56:38;15.35;;;10.13;;
22660;SDS011;11497;52.222;21.246;2022-10-16T13:59:22;16.20;;;10.27;;
22660;SDS011;11497;52.222;21.246;2022-10-16T14:02:14;15.45;;;9.73;;
22660;SDS011;11497;52.222;21.246;2022-10-16T14:04:42;16.73;;;10.63;;
22660;SDS011;11497;52.222;21.246;2022-10-16T14:07:13;12.50;;;9.65;;
22660;SDS011;11497;52.222;21.246;2022-10-16T14:09:48;12.43;;;9.80;;
22660;SDS011;11497;52.222;21.246;2022-10-16T14:12:17;16.80;;;10.45;;
22660;SDS011;11497;52.222;21.246;2022-10-16T14:14:51;14.32;;;10.82;;
22660;SDS011;11497;52.222;21.246;2022-10-16T14:17:28;13.15;;;10.80;;
22660;SDS011;11497;52.222;21.246;2022-10-16T14:20:00;13.68;;;9.98;;
22660;SDS011;11497;52.222;21.246;2022-10-16T14:22:35;16.10;;;10.05;;
22660;SDS011;11497;52.222;21.246;2022-10-16T14:28:04;16.25;;;10.95;;
22660;SDS011;11497;52.222;21.246;2022-10-16T14:30:56;14.98;;;10.90;;
22660;SDS011;11497;52.222;21.246;2022-10-16T14:36:17;13.75;;;10.93;;
22660;SDS011;11497;52.222;21.246;2022-10-16T14:41:46;16.30;;;11.52;;
22660;SDS011;11497;52.222;21.246;2022-10-16T14:44:19;15.73;;;10.95;;
22660;SDS011;11497;52.222;21.246;2022-10-16T14:46:53;17.00;;;11.77;;
22660;SDS011;11497;52.222;21.246;2022-10-16T14:49:21;16.63;;;11.65;;
22660;SDS011;11497;52.222;21.246;2022-10-16T14:51:50;17.38;;;11.35;;
22660;SDS011;11497;52.222;21.246;2022-10-16T14:54:18;15.10;;;10.55;;
22660;SDS011;11497;52.222;21.246;2022-10-16T14:56:51;19.20;;;11.43;;
22660;SDS011;11497;52.222;21.246;2022-10-16T15:01:52;14.15;;;10.85;;
22660;SDS011;11497;52.222;21.246;2022-10-16T15:04:20;15.57;;;10.48;;
22660;SDS011;11497;52.222;21.246;2022-10-16T15:06:48;13.27;;;10.25;;
22660;SDS011;11497;52.222;21.246;2022-10-16T15:09:16;17.60;;;11.10;;
22660;SDS011;11497;52.222;21.246;2022-10-16T15:11:44;13.00;;;10.10;;
22660;SDS011;11497;52.222;21.246;2022-10-16T15:14:13;15.57;;;11.05;;
22660;SDS011;11497;52.222;21.246;2022-10-16T15:16:46;15.90;;;11.00;;
22660;SDS011;11497;52.222;21.246;2022-10-16T15:19:13;13.45;;;10.80;;
22660;SDS011;11497;52.222;21.246;2022-10-16T15:21:41;14.18;;;11.23;;
22660;SDS011;11497;52.222;21.246;2022-10-16T15:24:13;15.20;;;11.27;;
22660;SDS011;11497;52.222;21.246;2022-10-16T15:26:47;19.95;;;11.52;;
22660;SDS011;11497;52.222;21.246;2022-10-16T15:29:16;15.70;;;11.52;;
22660;SDS011;11497;52.222;21.246;2022-10-16T15:31:44;18.45;;;11.27;;
22660;SDS011;11497;52.222;21.246;2022-10-16T15:34:14;16.35;;;11.57;;
22660;SDS011;11497;52.222;21.246;2022-10-16T15:36:42;13.85;;;10.65;;
22660;SDS011;11497;52.222;21.246;2022-10-16T15:39:16;18.42;;;12.63;;
22660;SDS011;11497;52.222;21.246;2022-10-16T15:41:47;16.58;;;11.57;;
22660;SDS011;11497;52.222;21.246;2022-10-16T15:44:18;19.38;;;12.57;;
22660;SDS011;11497;52.222;21.246;2022-10-16T15:46:46;17.98;;;12.32;;
22660;SDS011;11497;52.222;21.246;2022-10-16T15:49:14;17.63;;;11.80;;
22660;SDS011;11497;52.222;21.246;2022-10-16T15:51:42;20.95;;;13.48;;
22660;SDS011;11497;52.222;21.246;2022-10-16T15:54:11;17.38;;;12.55;;
22660;SDS011;11497;52.222;21.246;2022-10-16T15:56:39;19.55;;;13.45;;
22660;SDS011;11497;52.222;21.246;2022-10-16T15:59:07;20.80;;;12.95;;
22660;SDS011;11497;52.222;21.246;2022-10-16T16:01:35;19.77;;;13.18;;
22660;SDS011;11497;52.222;21.246;2022-10-16T16:04:03;19.50;;;12.70;;
22660;SDS011;11497;52.222;21.246;2022-10-16T16:06:46;19.92;;;12.80;;
22660;SDS011;11497;52.222;21.246;2022-10-16T16:09:14;20.98;;;13.63;;
22660;SDS011;11497;52.222;21.246;2022-10-16T16:11:42;24.92;;;13.75;;
22660;SDS011;11497;52.222;21.246;2022-10-16T16:14:10;20.17;;;13.30;;
22660;SDS011;11497;52.222;21.246;2022-10-16T16:16:40;17.73;;;13.48;;
22660;SDS011;11497;52.222;21.246;2022-10-16T16:19:09;19.70;;;13.52;;
22660;SDS011;11497;52.222;21.246;2022-10-16T16:21:37;22.42;;;14.25;;
22660;SDS011;11497;52.222;21.246;2022-10-16T16:24:05;23.35;;;13.32;;
22660;SDS011;11497;52.222;21.246;2022-10-16T16:26:35;19.00;;;13.73;;
22660;SDS011;11497;52.222;21.246;2022-10-16T16:29:06;22.90;;;13.80;;
22660;SDS011;11497;52.222;21.246;2022-10-16T16:31:35;18.20;;;13.02;;
22660;SDS011;11497;52.222;21.246;2022-10-16T16:34:04;19.50;;;14.25;;
22660;SDS011;11497;52.222;21.246;2022-10-16T16:36:32;19.25;;;14.18;;
22660;SDS011;11497;52.222;21.246;2022-10-16T16:39:01;22.40;;;15.60;;
22660;SDS011;11497;52.222;21.246;2022-10-16T16:41:29;23.27;;;15.63;;
22660;SDS011;11497;52.222;21.246;2022-10-16T16:44:01;21.48;;;15.20;;
22660;SDS011;11497;52.222;21.246;2022-10-16T16:46:31;26.40;;;15.18;;
22660;SDS011;11497;52.222;21.246;2022-10-16T16:49:00;22.65;;;14.45;;
22660;SDS011;11497;52.222;21.246;2022-10-16T16:51:29;20.63;;;15.27;;
22660;SDS011;11497;52.222;21.246;2022-10-16T16:54:01;29.20;;;15.70;;
22660;SDS011;11497;52.222;21.246;2022-10-16T16:56:29;24.13;;;15.50;;
22660;SDS011;11497;52.222;21.246;2022-10-16T16:58:57;19.17;;;14.93;;